createdAt,value
2022-12-29T00:00:20.303Z,23.13
2022-12-29T00:02:47.354Z,20.63
2022-12-29T00:05:14.260Z,20.73
2022-12-29T00:07:41.041Z,33.50
2022-12-29T00:10:08.564Z,54.17
2022-12-29T00:12:53.942Z,32.55
2022-12-29T00:15:38.929Z,25.80
2022-12-29T00:18:06.611Z,34.15
2022-12-29T00:20:56.835Z,53.28
2022-12-29T00:23:42.448Z,27.83
2022-12-29T00:26:33.631Z,26.07
2022-12-29T00:29:19.467Z,37.08
2022-12-29T00:32:04.874Z,36.58
2022-12-29T00:34:50.368Z,27.48
2022-12-29T00:37:17.877Z,24.35
2022-12-29T00:40:03.413Z,39.58
2022-12-29T00:42:48.911Z,36.22
2022-12-29T00:45:15.758Z,28.13
2022-12-29T00:47:42.526Z,15.93
2022-12-29T00:50:09.351Z,20.35
2022-12-29T00:52:36.195Z,35.75
2022-12-29T00:55:02.968Z,24.23
2022-12-29T00:57:29.733Z,24.17
2022-12-29T00:59:56.559Z,16.65
2022-12-29T01:02:23.538Z,16.48
2022-12-29T01:04:50.457Z,27.08
2022-12-29T01:07:17.549Z,20.38
2022-12-29T01:10:03.641Z,17.42
2022-12-29T01:12:42.977Z,16.30
2022-12-29T01:15:11.762Z,22.95
2022-12-29T01:17:38.482Z,16.52
2022-12-29T01:20:05.950Z,20.00
2022-12-29T01:22:32.844Z,19.27
2022-12-29T01:24:59.651Z,16.35
2022-12-29T01:27:26.881Z,17.73
2022-12-29T01:29:53.774Z,17.77
2022-12-29T01:32:20.522Z,15.00
2022-12-29T01:34:47.321Z,16.42
2022-12-29T01:37:14.130Z,17.63
2022-12-29T01:39:41.029Z,17.02
2022-12-29T01:42:18.082Z,13.95
2022-12-29T01:44:55.483Z,10.63
2022-12-29T01:47:31.672Z,14.07
2022-12-29T01:50:03.744Z,12.68
2022-12-29T01:52:34.741Z,9.35
2022-12-29T01:55:04.355Z,14.13
2022-12-29T01:57:35.710Z,14.27
2022-12-29T02:00:14.670Z,12.90
2022-12-29T02:02:50.384Z,10.20
2022-12-29T02:05:48.750Z,9.45
2022-12-29T02:08:15.767Z,10.77
2022-12-29T02:10:44.554Z,11.38
2022-12-29T02:13:11.364Z,12.57
2022-12-29T02:16:13.647Z,10.15
2022-12-29T02:18:52.343Z,12.35
2022-12-29T02:21:22.093Z,14.80
2022-12-29T02:23:54.766Z,15.57
2022-12-29T02:26:39.784Z,12.18
2022-12-29T02:29:15.317Z,10.82
2022-12-29T02:31:59.928Z,10.45
2022-12-29T02:34:48.344Z,13.13
2022-12-29T02:37:23.364Z,12.82
2022-12-29T02:40:14.784Z,13.68
2022-12-29T02:43:04.639Z,12.68
2022-12-29T02:45:50.534Z,13.10
2022-12-29T02:48:30.394Z,10.50
2022-12-29T02:51:06.834Z,11.45
2022-12-29T02:53:55.736Z,14.93
2022-12-29T02:56:22.931Z,13.15
2022-12-29T02:58:49.825Z,11.73
2022-12-29T03:02:12.758Z,10.57
2022-12-29T03:05:04.288Z,13.63
2022-12-29T03:07:39.020Z,10.88
2022-12-29T03:10:11.618Z,13.63
2022-12-29T03:13:10.247Z,8.85
2022-12-29T03:16:05.905Z,12.02
2022-12-29T03:18:48.366Z,10.88
2022-12-29T03:21:56.887Z,13.98
2022-12-29T03:24:30.725Z,10.10
2022-12-29T03:27:00.507Z,14.68
2022-12-29T03:29:31.981Z,13.85
2022-12-29T03:32:00.616Z,13.65
2022-12-29T03:34:29.005Z,11.50
2022-12-29T03:37:03.952Z,13.05
2022-12-29T03:39:30.898Z,12.55
2022-12-29T03:42:05.610Z,12.77
2022-12-29T03:44:38.153Z,11.57
2022-12-29T03:47:06.298Z,12.55
2022-12-29T03:49:34.649Z,12.50
2022-12-29T03:52:01.471Z,11.82
2022-12-29T03:54:28.333Z,19.63
2022-12-29T03:56:55.082Z,14.60
2022-12-29T03:59:21.918Z,12.30
2022-12-29T04:01:48.923Z,11.25
2022-12-29T04:04:15.816Z,12.82
2022-12-29T04:06:44.445Z,11.30
2022-12-29T04:09:12.068Z,10.98
2022-12-29T04:11:38.857Z,9.75
2022-12-29T04:14:05.645Z,12.40
2022-12-29T04:16:32.505Z,13.48
2022-12-29T04:18:59.220Z,13.13
2022-12-29T04:21:25.966Z,10.27
2022-12-29T04:23:52.836Z,16.13
2022-12-29T04:26:19.685Z,14.27
2022-12-29T04:28:46.433Z,13.23
2022-12-29T04:31:13.328Z,15.48
2022-12-29T04:33:40.221Z,14.07
2022-12-29T04:36:07.214Z,17.88
2022-12-29T04:38:34.636Z,15.52
2022-12-29T04:41:02.068Z,14.75
2022-12-29T04:43:29.631Z,16.08
2022-12-29T04:45:56.640Z,15.30
2022-12-29T04:48:23.457Z,13.02
2022-12-29T04:50:51.041Z,13.65
2022-12-29T04:53:18.507Z,13.85
2022-12-29T04:55:48.945Z,14.52
2022-12-29T04:58:22.208Z,17.83
2022-12-29T05:00:52.520Z,15.07
2022-12-29T05:03:19.643Z,20.67
2022-12-29T05:05:46.517Z,13.85
2022-12-29T05:08:13.346Z,12.55
2022-12-29T05:10:40.549Z,12.55
2022-12-29T05:13:07.323Z,15.32
2022-12-29T05:15:34.440Z,17.63
2022-12-29T05:18:01.209Z,16.13
2022-12-29T05:20:27.967Z,15.52
2022-12-29T05:22:54.866Z,17.95
2022-12-29T05:25:21.778Z,11.38
2022-12-29T05:27:48.539Z,16.65
2022-12-29T05:30:15.424Z,17.75
2022-12-29T05:32:42.235Z,15.38
2022-12-29T05:35:09.548Z,12.18
2022-12-29T05:37:36.423Z,17.92
2022-12-29T05:40:03.623Z,19.02
2022-12-29T05:42:30.423Z,19.08
2022-12-29T05:44:57.273Z,16.08
2022-12-29T05:47:24.040Z,15.43
2022-12-29T05:49:50.930Z,15.00
2022-12-29T05:52:17.725Z,13.43
2022-12-29T05:54:45.310Z,14.25
2022-12-29T05:57:12.068Z,14.85
2022-12-29T05:59:38.844Z,16.08
2022-12-29T06:02:05.727Z,18.77
2022-12-29T06:04:32.627Z,15.18
2022-12-29T06:06:59.853Z,14.43
2022-12-29T06:09:26.582Z,12.75
2022-12-29T06:11:53.599Z,15.85
2022-12-29T06:14:21.260Z,19.25
2022-12-29T06:16:48.061Z,14.13
2022-12-29T06:19:15.122Z,16.23
2022-12-29T06:21:41.999Z,16.23
2022-12-29T06:24:08.832Z,19.33
2022-12-29T06:26:35.632Z,18.52
2022-12-29T06:29:04.118Z,19.50
2022-12-29T06:31:31.114Z,18.52
2022-12-29T06:33:59.027Z,14.85
2022-12-29T06:36:27.126Z,21.70
2022-12-29T06:38:54.211Z,18.77
2022-12-29T06:41:23.589Z,16.35
2022-12-29T06:43:53.780Z,15.63
2022-12-29T06:46:20.610Z,21.48
2022-12-29T06:48:47.538Z,19.15
2022-12-29T06:51:14.370Z,19.10
2022-12-29T06:53:41.344Z,19.80
2022-12-29T06:56:08.310Z,20.95
2022-12-29T06:58:35.103Z,22.60
2022-12-29T07:01:02.064Z,15.70
2022-12-29T07:03:28.875Z,17.92
2022-12-29T07:17:13.214Z,19.10
2022-12-29T07:19:40.083Z,23.70
2022-12-29T07:22:06.883Z,24.02
2022-12-29T07:24:33.707Z,25.58
2022-12-29T07:27:00.958Z,21.55
2022-12-29T07:29:27.748Z,22.67
2022-12-29T07:31:54.848Z,28.20
2022-12-29T07:34:21.815Z,27.27
2022-12-29T07:36:48.583Z,28.35
2022-12-29T07:39:15.416Z,25.77
2022-12-29T07:41:42.183Z,24.88
2022-12-29T07:44:10.268Z,25.40
2022-12-29T07:46:55.433Z,24.40
2022-12-29T07:49:24.232Z,24.80
2022-12-29T07:51:51.103Z,18.45
2022-12-29T07:54:20.825Z,21.05
2022-12-29T07:56:47.932Z,18.13
2022-12-29T07:59:14.814Z,19.88
2022-12-29T08:01:41.816Z,18.48
2022-12-29T08:04:08.756Z,20.58
2022-12-29T08:06:35.637Z,22.13
2022-12-29T08:09:09.882Z,23.83
2022-12-29T08:11:39.626Z,22.70
2022-12-29T08:14:06.365Z,20.95
2022-12-29T08:16:33.545Z,26.02
2022-12-29T08:19:00.591Z,25.23
2022-12-29T08:21:28.826Z,32.33
2022-12-29T08:23:55.754Z,37.22
2022-12-29T08:26:22.886Z,32.88
2022-12-29T08:28:54.081Z,27.75
2022-12-29T08:31:20.947Z,26.25
2022-12-29T08:33:47.836Z,27.42
2022-12-29T08:36:14.631Z,25.63
2022-12-29T08:38:41.460Z,28.63
2022-12-29T08:41:08.548Z,35.42
2022-12-29T08:43:35.305Z,35.42
2022-12-29T08:46:02.127Z,27.20
2022-12-29T08:48:28.980Z,27.75
2022-12-29T08:50:55.809Z,33.67
2022-12-29T08:53:22.669Z,25.70
2022-12-29T08:56:02.386Z,26.08
2022-12-29T08:58:34.139Z,22.77
2022-12-29T09:01:01.032Z,24.35
2022-12-29T09:06:16.481Z,24.02
2022-12-29T09:08:43.337Z,28.02
2022-12-29T09:11:12.846Z,19.88
2022-12-29T09:13:40.043Z,24.38
2022-12-29T09:16:07.583Z,18.25
2022-12-29T09:18:34.508Z,19.95
2022-12-29T09:21:03.698Z,18.38
2022-12-29T09:23:30.746Z,21.67
2022-12-29T09:25:57.732Z,22.92
2022-12-29T09:28:24.789Z,24.30
2022-12-29T09:30:52.077Z,22.20
2022-12-29T09:33:19.358Z,19.33
2022-12-29T09:35:51.270Z,24.58
2022-12-29T09:38:18.203Z,25.88
2022-12-29T09:40:50.381Z,25.25
2022-12-29T09:43:29.152Z,27.27
2022-12-29T09:46:04.552Z,28.10
2022-12-29T09:48:40.093Z,18.08
2022-12-29T09:51:14.167Z,22.85
2022-12-29T09:53:54.909Z,23.65
2022-12-29T09:56:24.320Z,23.20
2022-12-29T09:59:15.926Z,28.42
2022-12-29T10:02:00.280Z,30.90
2022-12-29T10:04:28.895Z,26.90
2022-12-29T10:07:28.540Z,26.35
2022-12-29T10:10:25.960Z,26.65
2022-12-29T10:13:19.599Z,24.45
2022-12-29T10:16:02.065Z,25.98
2022-12-29T10:18:41.165Z,23.95
2022-12-29T10:21:32.574Z,20.17
2022-12-29T10:24:04.764Z,20.25
2022-12-29T10:26:38.634Z,26.95
2022-12-29T10:29:07.780Z,22.73
2022-12-29T10:31:51.457Z,23.65
2022-12-29T10:34:24.146Z,23.35
2022-12-29T10:37:01.245Z,24.40
2022-12-29T10:39:44.377Z,26.33
2022-12-29T10:42:22.680Z,23.88
2022-12-29T10:44:49.584Z,23.65
2022-12-29T10:47:21.365Z,20.95
2022-12-29T10:49:49.354Z,23.88
2022-12-29T10:52:18.282Z,22.00
2022-12-29T10:55:06.223Z,22.73
2022-12-29T10:57:45.146Z,22.67
2022-12-29T11:00:22.847Z,17.95
2022-12-29T11:03:21.704Z,23.50
2022-12-29T11:05:55.652Z,18.65
2022-12-29T11:08:26.669Z,20.95
2022-12-29T11:11:05.904Z,24.80
2022-12-29T11:13:39.116Z,23.75
2022-12-29T11:16:06.691Z,24.90
2022-12-29T11:18:41.181Z,21.63
2022-12-29T11:21:27.450Z,25.23
2022-12-29T11:24:05.954Z,26.25
2022-12-29T11:26:35.283Z,22.83
2022-12-29T11:29:22.511Z,22.70
2022-12-29T11:31:56.257Z,22.38
2022-12-29T11:34:26.542Z,19.63
2022-12-29T11:37:00.908Z,22.95
2022-12-29T11:39:32.998Z,23.80
2022-12-29T11:42:00.267Z,22.83
2022-12-29T11:44:28.124Z,25.23
2022-12-29T11:46:55.600Z,22.40
2022-12-29T11:49:26.009Z,20.42
2022-12-29T11:51:56.249Z,20.88
2022-12-29T11:54:27.339Z,21.42
2022-12-29T11:56:55.567Z,23.13
2022-12-29T11:59:28.295Z,24.20
2022-12-29T12:01:57.290Z,24.25
2022-12-29T12:04:28.729Z,25.85
2022-12-29T12:07:17.554Z,25.95
2022-12-29T12:10:00.237Z,25.73
2022-12-29T12:12:46.841Z,27.02
2022-12-29T12:15:46.600Z,27.50
2022-12-29T12:18:29.871Z,27.85
2022-12-29T12:21:05.109Z,29.60
2022-12-29T12:24:00.660Z,23.48
2022-12-29T12:26:39.048Z,22.63
2022-12-29T12:29:14.327Z,27.70
2022-12-29T12:31:58.695Z,22.10
2022-12-29T12:34:38.394Z,27.27
2022-12-29T12:37:27.245Z,24.67
2022-12-29T12:40:31.401Z,24.88
2022-12-29T12:43:31.077Z,25.73
2022-12-29T12:46:39.411Z,22.52
2022-12-29T12:49:25.501Z,23.70
2022-12-29T12:52:08.211Z,23.58
2022-12-29T12:55:03.324Z,31.52
2022-12-29T12:57:58.182Z,30.25
2022-12-29T13:00:25.454Z,27.85
2022-12-29T13:03:23.460Z,30.17
2022-12-29T13:06:27.691Z,25.58
2022-12-29T13:09:13.206Z,27.25
2022-12-29T13:11:52.058Z,26.38
2022-12-29T13:14:35.549Z,22.95
2022-12-29T13:17:13.343Z,28.30
2022-12-29T13:20:19.016Z,24.13
2022-12-29T13:23:03.673Z,31.48
2022-12-29T13:25:44.716Z,29.75
2022-12-29T13:28:31.652Z,26.13
2022-12-29T13:30:58.392Z,30.48
2022-12-29T13:33:55.868Z,28.40
2022-12-29T13:36:33.671Z,30.20
2022-12-29T13:39:26.802Z,27.05
2022-12-29T13:41:56.225Z,24.70
2022-12-29T13:44:37.089Z,22.70
2022-12-29T13:47:28.190Z,29.73
2022-12-29T13:49:57.718Z,24.77
2022-12-29T13:52:45.364Z,21.30
2022-12-29T13:55:27.887Z,24.10
2022-12-29T13:58:27.161Z,22.70
2022-12-29T14:00:56.756Z,22.77
2022-12-29T14:03:55.403Z,26.67
2022-12-29T14:06:30.888Z,24.50
2022-12-29T14:09:06.673Z,24.27
2022-12-29T14:11:36.596Z,31.25
2022-12-29T14:14:29.584Z,26.92
2022-12-29T14:17:14.758Z,26.50
2022-12-29T14:19:45.720Z,23.75
2022-12-29T14:22:13.558Z,24.17
2022-12-29T14:24:44.155Z,19.80
2022-12-29T14:27:10.860Z,22.70
2022-12-29T14:29:40.688Z,21.60
2022-12-29T14:32:25.341Z,19.45
2022-12-29T14:34:57.656Z,24.73
2022-12-29T14:37:40.032Z,24.30
2022-12-29T14:40:15.876Z,27.75
2022-12-29T14:42:43.413Z,25.25
2022-12-29T14:45:16.539Z,25.30
2022-12-29T14:47:51.376Z,25.92
2022-12-29T14:50:24.602Z,19.83
2022-12-29T14:53:03.721Z,23.20
2022-12-29T14:55:31.061Z,29.65
2022-12-29T14:58:02.891Z,20.83
2022-12-29T15:00:35.832Z,21.15
2022-12-29T15:03:09.107Z,25.70
2022-12-29T15:05:46.184Z,29.17
2022-12-29T15:08:17.155Z,37.97
2022-12-29T15:11:08.472Z,25.17
2022-12-29T15:13:38.927Z,24.58
2022-12-29T15:16:06.519Z,32.97
2022-12-29T15:18:34.719Z,27.67
2022-12-29T15:21:06.125Z,26.00
2022-12-29T15:23:35.567Z,24.92
2022-12-29T15:26:08.617Z,22.95
2022-12-29T15:28:44.396Z,25.60
2022-12-29T15:31:17.126Z,28.27
2022-12-29T15:33:48.462Z,27.45
2022-12-29T15:36:30.042Z,19.98
2022-12-29T15:39:00.011Z,22.17
2022-12-29T15:41:28.899Z,20.48
2022-12-29T15:44:24.951Z,21.80
2022-12-29T15:46:51.755Z,28.77
2022-12-29T15:49:18.761Z,23.17
2022-12-29T15:51:45.612Z,21.05
2022-12-29T15:54:21.479Z,23.48
2022-12-29T15:56:50.919Z,26.67
2022-12-29T15:59:29.885Z,26.30
2022-12-29T16:01:58.214Z,25.10
2022-12-29T16:04:28.355Z,26.20
2022-12-29T16:07:01.118Z,25.23
2022-12-29T16:09:33.771Z,27.55
2022-12-29T16:12:05.742Z,26.95
2022-12-29T16:14:44.515Z,25.10
2022-12-29T16:17:16.911Z,20.80
2022-12-29T16:19:52.764Z,24.10
2022-12-29T16:22:40.847Z,25.50
2022-12-29T16:25:20.131Z,24.70
2022-12-29T16:27:48.348Z,22.75
2022-12-29T16:30:32.877Z,23.20
2022-12-29T16:33:03.047Z,21.48
2022-12-29T16:35:39.758Z,22.05
2022-12-29T16:38:22.448Z,23.90
2022-12-29T16:40:55.903Z,22.58
2022-12-29T16:43:32.597Z,29.05
2022-12-29T16:45:59.363Z,25.60
2022-12-29T16:48:33.737Z,25.90
2022-12-29T16:51:14.939Z,25.70
2022-12-29T16:53:48.141Z,26.05
2022-12-29T16:56:19.048Z,24.25
2022-12-29T16:58:51.926Z,23.30
2022-12-29T17:01:20.253Z,25.70
2022-12-29T17:03:54.572Z,25.33
2022-12-29T17:06:23.618Z,28.10
2022-12-29T17:08:51.669Z,22.75
2022-12-29T17:11:53.908Z,23.23
2022-12-29T17:14:41.760Z,22.85
2022-12-29T17:17:35.093Z,22.05
2022-12-29T17:20:06.184Z,24.33
2022-12-29T17:22:33.917Z,22.27
2022-12-29T17:25:02.998Z,25.15
2022-12-29T17:27:43.231Z,22.10
2022-12-29T17:30:17.708Z,24.05
2022-12-29T17:32:51.344Z,25.45
2022-12-29T17:35:20.375Z,24.55
2022-12-29T17:37:47.368Z,24.10
2022-12-29T17:40:18.317Z,28.10
2022-12-29T17:42:50.434Z,24.05
2022-12-29T17:45:24.257Z,26.52
2022-12-29T17:47:51.378Z,28.80
2022-12-29T17:50:22.011Z,26.45
2022-12-29T17:53:00.178Z,28.15
2022-12-29T17:55:34.670Z,22.85
2022-12-29T17:58:23.473Z,22.13
2022-12-29T18:00:52.755Z,22.42
2022-12-29T18:03:30.179Z,27.98
2022-12-29T18:05:57.794Z,23.67
2022-12-29T18:08:24.865Z,24.27
2022-12-29T18:10:53.997Z,28.77
2022-12-29T18:13:26.413Z,25.60
2022-12-29T18:15:55.967Z,25.42
2022-12-29T18:18:25.709Z,25.88
2022-12-29T18:20:58.948Z,25.23
2022-12-29T18:23:35.333Z,25.25
2022-12-29T18:26:12.724Z,23.92
2022-12-29T18:28:40.311Z,27.42
2022-12-29T18:31:20.067Z,27.65
2022-12-29T18:33:48.486Z,28.23
2022-12-29T18:36:16.734Z,28.40
2022-12-29T18:38:44.004Z,25.85
2022-12-29T18:41:19.419Z,26.58
2022-12-29T18:43:46.275Z,24.67
2022-12-29T18:46:18.767Z,21.75
2022-12-29T18:53:47.784Z,24.63
2022-12-29T18:56:14.837Z,25.33
2022-12-29T18:58:42.141Z,26.90
2022-12-29T19:01:20.801Z,23.80
2022-12-29T19:03:47.975Z,22.90
2022-12-29T19:06:14.883Z,29.65
2022-12-29T19:08:42.421Z,23.98
2022-12-29T19:11:09.409Z,25.33
2022-12-29T19:13:36.295Z,26.10
2022-12-29T19:16:03.337Z,25.00
2022-12-29T19:18:53.266Z,24.55
2022-12-29T19:21:20.050Z,26.17
2022-12-29T19:23:47.770Z,26.27
2022-12-29T19:26:39.000Z,27.13
2022-12-29T19:29:14.529Z,24.10
2022-12-29T19:31:41.602Z,28.95
2022-12-29T19:34:08.531Z,23.20
2022-12-29T19:36:35.384Z,28.52
2022-12-29T19:39:02.212Z,29.33
2022-12-29T19:41:29.049Z,24.60
2022-12-29T19:43:56.318Z,24.77
2022-12-29T19:46:24.547Z,26.33
2022-12-29T19:48:52.073Z,24.08
2022-12-29T19:51:19.329Z,27.77
2022-12-29T20:02:58.954Z,27.17
2022-12-29T20:05:25.751Z,21.50
2022-12-29T20:07:52.530Z,22.42
2022-12-29T21:16:23.118Z,25.92
2022-12-29T21:20:02.736Z,21.98
2022-12-29T21:29:29.043Z,22.20
2022-12-29T21:32:27.948Z,20.92
2022-12-29T21:41:50.874Z,23.42
2022-12-29T21:44:36.513Z,20.75
2022-12-29T21:47:03.320Z,21.57
2022-12-29T21:49:30.098Z,22.20
2022-12-29T21:51:57.613Z,19.17
2022-12-29T21:54:45.247Z,22.48
2022-12-29T21:57:33.993Z,19.48
2022-12-29T22:00:19.268Z,20.08
2022-12-29T22:03:05.089Z,26.90
2022-12-29T22:05:50.514Z,22.48
2022-12-29T22:08:35.935Z,23.17
2022-12-29T22:11:26.646Z,23.60
2022-12-29T22:13:55.963Z,21.38
2022-12-29T22:16:24.880Z,26.02
2022-12-29T22:18:52.384Z,21.23
2022-12-29T22:21:19.602Z,25.38
2022-12-29T22:23:46.349Z,25.90
2022-12-29T22:26:14.573Z,22.38
2022-12-29T22:28:43.614Z,21.70
2022-12-29T22:31:27.581Z,23.73
2022-12-29T22:33:56.454Z,23.17
2022-12-29T22:36:24.219Z,21.10
2022-12-29T22:38:51.087Z,25.88
2022-12-29T22:41:17.960Z,20.13
2022-12-29T22:43:44.890Z,20.27
2022-12-29T22:46:12.314Z,23.70
2022-12-29T22:48:39.100Z,18.17
2022-12-29T22:51:06.292Z,19.90
2022-12-29T22:53:33.473Z,23.30
2022-12-29T22:56:09.745Z,21.42
2022-12-29T22:58:40.555Z,22.88
2022-12-29T23:01:07.708Z,21.23
2022-12-29T23:03:34.943Z,21.20
2022-12-29T23:06:03.890Z,24.70
2022-12-29T23:08:35.893Z,27.73
2022-12-29T23:11:03.927Z,24.55
2022-12-29T23:13:30.717Z,24.23
2022-12-29T23:15:57.466Z,24.20
2022-12-29T23:18:24.299Z,24.63
2022-12-29T23:20:51.302Z,22.95
2022-12-29T23:23:41.777Z,26.75
2022-12-29T23:26:13.171Z,22.85
2022-12-29T23:28:39.966Z,23.42
2022-12-29T23:31:06.761Z,24.50
2022-12-29T23:33:33.944Z,19.52
2022-12-29T23:36:00.745Z,23.27
2022-12-29T23:38:27.688Z,21.98
2022-12-29T23:40:54.447Z,23.52
2022-12-29T23:43:21.352Z,24.50
2022-12-29T23:45:50.956Z,23.77
2022-12-29T23:48:18.463Z,21.17
2022-12-29T23:50:45.915Z,22.85
2022-12-29T23:53:12.912Z,23.52
2022-12-29T23:55:43.454Z,24.42
2022-12-29T23:58:11.021Z,44.45
